Time;durP1;ratioP1;P1;durP2;ratioP2;P2;SDS_P1;SDS_P2;PMS_P1;PMS_P2;Temp;Humidity;BMP_temperature;BMP_pressure;BME280_temperature;BME280_humidity;BME280_pressure;Samples;Min_cycle;Max_cycle;Signal;HPM_P1;HPM_P2
2023/03/12 00:02:13;;;;;;;32.72;17.20;;;2.10;99.90;;;;;;5119349;27;20561;-83
2023/03/12 00:04:38;;;;;;;33.33;18.73;;;-0.10;99.90;;;;;;5110329;27;20058;-85
2023/03/12 00:07:06;;;;;;;32.92;17.05;;;1.90;99.90;;;;;;5124457;27;20046;-82
2023/03/12 00:09:36;;;;;;;28.10;15.63;;;1.40;99.90;;;;;;5092813;27;20031;-84
2023/03/12 00:12:03;;;;;;;22.48;12.95;;;2.20;99.90;;;;;;5105868;27;20398;-83
2023/03/12 00:14:29;;;;;;;26.70;15.50;;;0.00;99.90;;;;;;5093887;27;20055;-85
2023/03/12 00:16:55;;;;;;;17.42;9.65;;;1.60;99.90;;;;;;5111361;27;20047;-82
2023/03/12 00:19:21;;;;;;;15.77;8.60;;;0.00;99.90;;;;;;5111774;27;20517;-85
2023/03/12 00:21:47;;;;;;;11.52;6.75;;;2.30;99.90;;;;;;5090998;28;20040;-85
2023/03/12 00:24:13;;;;;;;7.78;5.43;;;-0.20;99.90;;;;;;5109756;27;20047;-86
2023/03/12 00:26:38;;;;;;;16.83;8.20;;;-0.10;99.90;;;;;;5110559;27;20486;-85
2023/03/12 00:29:04;;;;;;;15.75;9.23;;;-0.10;99.90;;;;;;5106618;28;20043;-86
2023/03/12 00:31:31;;;;;;;18.55;8.60;;;1.30;99.90;;;;;;5111034;27;20040;-86
2023/03/12 00:33:59;;;;;;;13.13;7.60;;;3.00;99.90;;;;;;5110937;27;20078;-86
2023/03/12 00:36:27;;;;;;;9.25;5.32;;;-0.40;99.90;;;;;;5094237;27;20413;-85
2023/03/12 00:38:53;;;;;;;13.32;7.32;;;0.00;99.90;;;;;;5091887;28;20047;-84
2023/03/12 00:41:19;;;;;;;13.73;6.60;;;2.20;99.90;;;;;;5108321;28;20047;-85
2023/03/12 00:43:49;;;;;;;9.27;5.45;;;2.40;99.90;;;;;;5103928;28;20124;-82
2023/03/12 00:46:16;;;;;;;11.75;6.47;;;-0.20;99.90;;;;;;5090743;27;20087;-83
2023/03/12 00:48:42;;;;;;;18.10;8.60;;;-0.10;99.90;;;;;;5110087;27;20047;-82
2023/03/12 00:51:08;;;;;;;12.07;6.47;;;-0.20;99.90;;;;;;5112059;27;20501;-82
2023/03/12 00:53:34;;;;;;;12.10;5.53;;;-0.60;99.90;;;;;;5095185;27;20458;-83
2023/03/12 00:56:00;;;;;;;11.60;5.50;;;1.70;99.90;;;;;;5094244;27;20130;-83
2023/03/12 00:58:26;;;;;;;11.82;5.75;;;;;;;;;;5111502;27;20041;-83
2023/03/12 01:00:52;;;;;;;9.88;4.82;;;-0.10;99.90;;;;;;5109166;28;20423;-83
2023/03/12 01:03:18;;;;;;;14.52;6.22;;;-0.50;99.90;;;;;;5125047;27;20134;-83
2023/03/12 01:05:44;;;;;;;11.98;6.20;;;2.00;99.90;;;;;;5095494;27;20391;-81
2023/03/12 01:08:10;;;;;;;12.68;5.05;;;-0.30;99.90;;;;;;5121146;27;20444;-80
2023/03/12 01:10:40;;;;;;;14.23;6.45;;;1.80;99.90;;;;;;5108416;27;20032;-80
2023/03/12 01:13:06;;;;;;;14.40;6.13;;;1.20;99.90;;;;;;5093608;27;20549;-81
2023/03/12 01:15:32;;;;;;;9.68;4.85;;;-0.20;99.90;;;;;;5092972;27;20135;-80
2023/03/12 01:17:58;;;;;;;9.80;5.65;;;-0.20;99.90;;;;;;5111075;27;20130;-80
2023/03/12 01:20:23;;;;;;;6.07;3.50;;;1.70;99.90;;;;;;5111983;27;20043;-81
2023/03/12 01:22:50;;;;;;;6.00;2.58;;;-0.40;99.90;;;;;;5073616;28;20036;-80
2023/03/12 01:25:16;;;;;;;6.50;2.95;;;0.40;99.90;;;;;;5085577;28;20035;-80
2023/03/12 01:27:45;;;;;;;5.68;2.38;;;-0.20;99.90;;;;;;5094501;27;20050;-81
2023/03/12 01:30:11;;;;;;;6.70;3.20;;;-0.30;99.90;;;;;;5110407;27;20043;-81
2023/03/12 01:32:37;;;;;;;7.20;4.00;;;-0.30;99.90;;;;;;5093331;27;20039;-82
2023/03/12 01:35:02;;;;;;;8.95;4.35;;;-0.30;99.90;;;;;;5110619;27;20447;-80
2023/03/12 01:37:28;;;;;;;15.68;8.02;;;-0.40;99.90;;;;;;5120519;27;20043;-82
2023/03/12 01:39:54;;;;;;;7.25;4.30;;;0.40;99.90;;;;;;5094384;27;20414;-80
2023/03/12 01:42:19;;;;;;;12.25;6.07;;;-0.50;99.90;;;;;;5093584;27;20478;-82
2023/03/12 01:44:57;;;;;;;12.35;6.68;;;-0.50;99.90;;;;;;5102408;27;20043;-80
2023/03/12 01:47:24;;;;;;;21.80;7.85;;;-0.30;99.90;;;;;;5111268;27;20039;-82
2023/03/12 01:49:52;;;;;;;11.82;5.18;;;-0.30;99.90;;;;;;5111590;27;20125;-83
2023/03/12 01:52:22;;;;;;;11.00;5.30;;;-0.40;99.90;;;;;;5109668;27;20172;-79
2023/03/12 01:55:08;;;;;;;9.18;5.25;;;-0.40;99.90;;;;;;5110960;27;20087;-80
2023/03/12 01:57:42;;;;;;;13.10;6.75;;;-0.20;99.90;;;;;;5092162;28;20097;-81
2023/03/12 02:00:14;;;;;;;16.10;6.95;;;-0.30;99.90;;;;;;5089940;28;20134;-81
2023/03/12 02:02:41;;;;;;;13.93;6.32;;;-0.30;99.90;;;;;;5092819;27;20047;-81
2023/03/12 02:05:16;;;;;;;10.10;4.90;;;-0.50;99.90;;;;;;5128539;27;20039;-81
2023/03/12 02:07:42;;;;;;;13.30;5.68;;;1.10;99.90;;;;;;5091040;28;20138;-84
2023/03/12 02:10:08;;;;;;;8.95;4.53;;;-0.20;99.90;;;;;;5085361;28;20496;-81
2023/03/12 02:12:34;;;;;;;8.32;3.80;;;-0.30;99.90;;;;;;5109353;28;20051;-84
2023/03/12 02:14:59;;;;;;;6.15;3.55;;;2.10;99.90;;;;;;5093648;28;20393;-83
2023/03/12 02:17:25;;;;;;;9.18;3.53;;;1.90;99.90;;;;;;5093160;28;20407;-83
2023/03/12 02:20:15;;;;;;;7.55;3.88;;;0.60;99.90;;;;;;5090001;28;20043;-82
2023/03/12 02:22:46;;;;;;;9.38;3.63;;;-0.20;99.90;;;;;;5091273;28;20070;-81
2023/03/12 02:25:29;;;;;;;8.82;3.20;;;-0.30;99.90;;;;;;5120708;28;20086;-83
2023/03/12 02:27:59;;;;;;;7.57;3.38;;;-0.20;99.90;;;;;;5116064;28;20111;-83
2023/03/12 02:30:28;;;;;;;10.63;3.97;;;-0.20;99.90;;;;;;5091900;28;20080;-81
2023/03/12 02:32:55;;;;;;;16.13;4.60;;;-0.10;99.90;;;;;;5119864;28;20142;-87
2023/03/12 02:35:21;;;;;;;11.20;3.47;;;-0.60;99.90;;;;;;5127688;28;20035;-86
2023/03/12 02:37:51;;;;;;;11.70;4.72;;;0.50;99.90;;;;;;5092230;28;20517;-83
2023/03/12 02:40:39;;;;;;;6.22;4.63;;;2.30;99.90;;;;;;5108346;28;20023;-81
2023/03/12 02:43:06;;;;;;;9.55;4.65;;;0.00;99.90;;;;;;5103295;28;20080;-86
2023/03/12 02:45:34;;;;;;;12.55;6.90;;;-0.10;99.90;;;;;;5109606;28;20058;-86
2023/03/12 02:48:01;;;;;;;8.02;4.43;;;-0.20;99.90;;;;;;5107638;28;20031;-82
2023/03/12 02:50:26;;;;;;;8.00;3.50;;;1.60;99.90;;;;;;5092788;28;20119;-81
2023/03/12 02:52:52;;;;;;;5.57;3.13;;;0.50;99.90;;;;;;5091237;28;20122;-82
2023/03/12 02:55:18;;;;;;;6.90;2.38;;;0.40;99.90;;;;;;5108850;28;20031;-81
2023/03/12 02:57:43;;;;;;;3.47;2.25;;;0.30;99.90;;;;;;5107809;28;20502;-81
2023/03/12 03:00:11;;;;;;;6.75;2.30;;;1.10;99.90;;;;;;5115118;28;20088;-81
2023/03/12 03:02:41;;;;;;;3.83;2.45;;;0.10;99.90;;;;;;5110677;27;20069;-83
2023/03/12 03:05:08;;;;;;;6.32;2.88;;;0.10;99.90;;;;;;5123062;27;20047;-81
2023/03/12 03:07:34;;;;;;;5.47;2.28;;;0.20;99.90;;;;;;5126666;27;20513;-81
2023/03/12 03:10:03;;;;;;;8.13;2.00;;;-0.20;99.90;;;;;;5123569;27;20027;-81
2023/03/12 03:12:36;;;;;;;9.50;2.53;;;2.10;99.90;;;;;;5105791;27;20040;-81
2023/03/12 03:15:02;;;;;;;4.82;2.30;;;0.20;99.90;;;;;;5111477;27;20043;-81
2023/03/12 03:17:28;;;;;;;7.13;3.03;;;0.10;99.90;;;;;;5107106;27;20242;-83
2023/03/12 03:19:54;;;;;;;7.82;2.70;;;0.10;99.90;;;;;;5113884;27;20035;-81
2023/03/12 03:22:21;;;;;;;5.03;2.70;;;-0.20;99.90;;;;;;5094417;27;20069;-80
2023/03/12 03:24:47;;;;;;;7.35;2.33;;;0.20;99.90;;;;;;5106844;27;20047;-82
2023/03/12 03:27:16;;;;;;;3.63;3.15;;;0.80;99.90;;;;;;5119435;27;20550;-81
2023/03/12 03:29:43;;;;;;;3.35;2.20;;;0.10;99.90;;;;;;5122338;27;20071;-80
2023/03/12 03:32:09;;;;;;;3.35;2.20;;;0.20;99.90;;;;;;5096506;27;20122;-82
2023/03/12 03:34:34;;;;;;;3.67;2.22;;;0.10;99.90;;;;;;5111535;27;20184;-81
2023/03/12 03:37:00;;;;;;;3.97;2.58;;;0.20;99.90;;;;;;5092421;28;20066;-82
2023/03/12 03:39:28;;;;;;;4.97;2.40;;;0.00;99.90;;;;;;5094002;27;20398;-80
2023/03/12 03:41:53;;;;;;;5.07;2.60;;;0.20;99.90;;;;;;5102295;28;20039;-81
2023/03/12 03:44:21;;;;;;;6.25;2.92;;;0.20;99.90;;;;;;5109705;27;20039;-82
2023/03/12 03:46:47;;;;;;;3.53;2.80;;;0.20;99.90;;;;;;5110725;27;20085;-83
2023/03/12 03:49:14;;;;;;;7.65;2.70;;;-0.10;99.90;;;;;;5120330;27;20046;-81
2023/03/12 03:51:41;;;;;;;3.08;2.53;;;0.20;99.90;;;;;;5111400;27;20116;-81
2023/03/12 03:54:08;;;;;;;5.43;2.65;;;0.20;99.90;;;;;;5092216;27;20047;-81
2023/03/12 03:56:34;;;;;;;7.00;3.80;;;0.10;99.90;;;;;;5095345;27;20088;-81
2023/03/12 03:59:00;;;;;;;6.28;2.85;;;0.00;99.90;;;;;;5110006;27;20047;-83
2023/03/12 04:01:27;;;;;;;8.52;2.72;;;1.20;99.90;;;;;;5129993;27;20517;-80
2023/03/12 04:03:52;;;;;;;5.90;2.90;;;2.30;99.90;;;;;;5108413;27;20092;-79
2023/03/12 04:06:18;;;;;;;5.05;2.22;;;0.10;99.90;;;;;;5129523;27;20047;-80
2023/03/12 04:08:44;;;;;;;6.00;2.35;;;2.50;99.90;;;;;;5130828;27;20053;-82
2023/03/12 04:11:15;;;;;;;6.05;2.97;;;-0.20;99.90;;;;;;5094307;27;20047;-79
2023/03/12 04:13:41;;;;;;;3.47;2.65;;;1.10;99.90;;;;;;5127403;27;20066;-81
2023/03/12 04:16:07;;;;;;;6.95;2.60;;;0.40;99.90;;;;;;5093585;27;20637;-80
2023/03/12 04:18:35;;;;;;;8.05;2.72;;;0.30;99.90;;;;;;5112765;27;20054;-80
2023/03/12 04:21:01;;;;;;;4.60;2.58;;;0.10;99.90;;;;;;5090059;28;20099;-80
2023/03/12 04:23:26;;;;;;;3.85;2.35;;;0.50;99.90;;;;;;5091250;27;20046;-79
2023/03/12 04:25:52;;;;;;;4.65;2.35;;;1.60;99.90;;;;;;5107313;27;20027;-80
2023/03/12 04:28:18;;;;;;;6.95;2.67;;;-1.00;99.90;;;;;;5110846;27;20560;-80
2023/03/12 04:30:44;;;;;;;6.88;2.72;;;0.60;99.90;;;;;;5092907;27;20078;-80
2023/03/12 04:33:09;;;;;;;6.13;2.47;;;0.40;99.90;;;;;;5094687;27;20046;-81
2023/03/12 04:35:35;;;;;;;5.10;2.45;;;2.60;99.90;;;;;;5127887;27;20038;-80
2023/03/12 04:38:03;;;;;;;3.63;2.13;;;-0.20;99.90;;;;;;5110167;27;20042;-80
2023/03/12 04:40:28;;;;;;;3.45;2.22;;;0.40;99.90;;;;;;5091432;27;20077;-82
2023/03/12 04:42:54;;;;;;;5.68;2.95;;;0.40;99.90;;;;;;5111202;27;20070;-80
2023/03/12 04:45:20;;;;;;;4.35;2.78;;;2.80;99.90;;;;;;5102878;27;20437;-83
2023/03/12 04:47:45;;;;;;;6.20;3.35;;;0.40;99.90;;;;;;5128121;27;20118;-81
2023/03/12 04:50:11;;;;;;;6.70;2.53;;;0.50;99.90;;;;;;5110443;27;20119;-83
2023/03/12 04:52:37;;;;;;;5.93;2.42;;;3.60;99.90;;;;;;5111532;27;20085;-84
2023/03/12 04:55:04;;;;;;;5.50;2.53;;;-1.20;99.90;;;;;;5087094;27;20113;-83
2023/03/12 04:57:30;;;;;;;3.85;2.30;;;0.60;99.90;;;;;;5110133;27;20097;-82
2023/03/12 04:59:55;;;;;;;6.38;2.63;;;0.50;99.90;;;;;;5102198;27;20593;-81
2023/03/12 05:02:21;;;;;;;4.47;2.67;;;0.50;99.90;;;;;;5109979;27;20039;-84
2023/03/12 05:04:49;;;;;;;7.38;2.47;;;0.50;99.90;;;;;;5126146;27;20035;-80
2023/03/12 05:07:14;;;;;;;9.65;2.92;;;2.00;99.90;;;;;;5093036;27;20035;-79
2023/03/12 05:09:40;;;;;;;5.22;2.67;;;0.50;99.90;;;;;;5109297;27;20046;-81
2023/03/12 05:12:06;;;;;;;3.92;2.55;;;0.70;99.90;;;;;;5097990;27;20031;-80
2023/03/12 05:14:33;;;;;;;7.22;2.58;;;0.70;99.90;;;;;;5112398;28;20070;-80
2023/03/12 05:16:58;;;;;;;4.60;2.50;;;0.50;99.90;;;;;;5089172;28;20051;-80
2023/03/12 05:19:24;;;;;;;2.90;2.38;;;0.70;99.90;;;;;;5088958;28;20048;-80
2023/03/12 05:21:50;;;;;;;8.15;2.70;;;1.10;99.90;;;;;;5088915;28;20115;-81
2023/03/12 05:24:15;;;;;;;8.82;2.78;;;0.60;99.90;;;;;;5082493;28;20123;-80
2023/03/12 05:26:41;;;;;;;5.95;2.65;;;0.70;99.90;;;;;;5086456;28;20047;-79
2023/03/12 05:29:07;;;;;;;5.60;2.70;;;0.70;99.90;;;;;;5086710;28;20036;-80
2023/03/12 05:31:34;;;;;;;5.25;2.25;;;2.40;99.90;;;;;;5085461;28;20051;-82
2023/03/12 05:34:01;;;;;;;3.13;2.42;;;0.70;99.90;;;;;;5086100;28;20047;-81
2023/03/12 05:36:27;;;;;;;5.53;2.60;;;2.20;99.90;;;;;;5066042;28;20052;-80
2023/03/12 05:38:53;;;;;;;7.45;3.47;;;3.30;99.90;;;;;;5087291;28;20356;-79
2023/03/12 05:41:21;;;;;;;9.10;2.97;;;0.60;99.90;;;;;;5087457;28;20035;-81
2023/03/12 05:43:47;;;;;;;6.40;2.78;;;3.30;99.90;;;;;;5067538;28;20059;-79
2023/03/12 05:46:13;;;;;;;5.80;2.63;;;0.20;99.90;;;;;;5068537;28;20044;-80
2023/03/12 05:48:39;;;;;;;5.63;2.92;;;-0.40;99.90;;;;;;5068625;28;20123;-80
2023/03/12 05:51:05;;;;;;;5.28;2.85;;;2.70;99.90;;;;;;5084698;28;20111;-79
2023/03/12 05:53:31;;;;;;;5.90;3.03;;;0.70;99.90;;;;;;5086330;28;20043;-79
2023/03/12 05:56:06;;;;;;;4.32;3.00;;;0.70;99.90;;;;;;5078697;28;20559;-79
2023/03/12 05:58:34;;;;;;;7.07;3.00;;;0.70;99.90;;;;;;5060448;28;20072;-81
2023/03/12 06:00:59;;;;;;;9.07;3.40;;;0.70;99.90;;;;;;5099558;28;20032;-79
2023/03/12 06:03:25;;;;;;;7.63;3.40;;;-0.20;99.90;;;;;;5082633;28;20445;-79
2023/03/12 06:05:54;;;;;;;4.85;2.90;;;0.90;99.90;;;;;;5086022;28;20119;-82
2023/03/12 06:08:23;;;;;;;5.97;2.75;;;0.70;99.90;;;;;;5061434;28;20491;-79
2023/03/12 06:10:51;;;;;;;6.28;2.85;;;0.70;99.90;;;;;;5086166;28;20036;-80
2023/03/12 06:13:16;;;;;;;7.47;2.88;;;0.80;99.90;;;;;;5074412;28;20521;-80
2023/03/12 06:15:42;;;;;;;3.92;2.90;;;0.70;99.90;;;;;;5083224;28;20047;-79
2023/03/12 06:18:08;;;;;;;5.57;3.15;;;2.70;99.90;;;;;;5102665;28;20051;-80
2023/03/12 06:20:33;;;;;;;12.50;2.92;;;2.30;99.90;;;;;;5103117;28;20039;-80
2023/03/12 06:23:02;;;;;;;5.10;3.08;;;0.70;99.90;;;;;;5107003;28;20114;-80
2023/03/12 06:25:28;;;;;;;9.27;3.63;;;0.60;99.90;;;;;;5105864;28;20126;-79
2023/03/12 06:27:53;;;;;;;9.30;3.67;;;0.70;99.90;;;;;;5116030;28;20039;-78
2023/03/12 06:30:19;;;;;;;17.70;3.95;;;0.40;99.90;;;;;;5129183;28;20043;-80
2023/03/12 06:32:45;;;;;;;9.23;2.53;;;1.90;99.90;;;;;;5104303;28;20040;-79
2023/03/12 06:35:10;;;;;;;8.07;3.20;;;0.80;99.90;;;;;;5087514;28;20039;-80
2023/03/12 06:37:36;;;;;;;5.00;3.05;;;0.80;99.90;;;;;;5088375;27;20386;-83
2023/03/12 06:40:03;;;;;;;5.03;3.17;;;1.00;99.90;;;;;;5112593;27;20035;-80
2023/03/12 06:42:29;;;;;;;7.53;2.88;;;0.80;99.90;;;;;;5111251;27;20143;-82
2023/03/12 06:44:55;;;;;;;7.72;3.42;;;2.90;99.90;;;;;;5114447;27;20518;-84
2023/03/12 06:47:20;;;;;;;12.05;3.92;;;0.90;99.90;;;;;;5091861;28;20111;-82
2023/03/12 06:49:46;;;;;;;6.47;2.90;;;0.90;99.90;;;;;;5130678;27;20099;-84
2023/03/12 06:52:12;;;;;;;10.43;3.58;;;0.90;99.90;;;;;;5132218;27;20070;-85
2023/03/12 06:54:38;;;;;;;10.70;3.50;;;0.90;99.90;;;;;;5140720;27;20086;-85
2023/03/12 06:57:03;;;;;;;7.50;3.72;;;2.80;99.90;;;;;;5143755;27;20350;-84
2023/03/12 06:59:29;;;;;;;7.20;4.05;;;1.00;99.90;;;;;;5099739;27;20035;-85
2023/03/12 07:01:55;;;;;;;6.20;3.72;;;0.80;99.90;;;;;;5131382;27;20051;-81
2023/03/12 07:04:21;;;;;;;6.90;3.95;;;1.00;99.90;;;;;;5126960;27;20487;-80
2023/03/12 07:06:49;;;;;;;7.32;4.03;;;1.00;99.90;;;;;;5131264;27;20043;-79
2023/03/12 07:09:16;;;;;;;6.80;3.90;;;2.60;99.90;;;;;;5125081;27;20046;-80
2023/03/12 07:11:42;;;;;;;6.50;3.75;;;0.90;99.90;;;;;;5111893;27;20594;-81
2023/03/12 07:14:08;;;;;;;9.10;4.38;;;2.90;99.90;;;;;;5105525;27;20055;-81
2023/03/12 07:16:34;;;;;;;11.13;4.75;;;1.00;99.90;;;;;;5112744;27;20051;-79
2023/03/12 07:18:59;;;;;;;10.00;4.45;;;0.90;99.90;;;;;;5105018;27;20042;-80
2023/03/12 07:21:25;;;;;;;8.48;4.60;;;0.50;99.90;;;;;;5108412;28;20032;-79
2023/03/12 07:23:51;;;;;;;8.77;4.43;;;3.20;99.90;;;;;;5110712;27;20385;-80
2023/03/12 07:26:17;;;;;;;13.93;4.93;;;1.00;99.90;;;;;;5094848;27;20084;-79
2023/03/12 07:28:44;;;;;;;10.73;4.47;;;0.70;99.90;;;;;;5110707;27;20096;-80
2023/03/12 07:31:09;;;;;;;8.32;4.85;;;0.80;99.90;;;;;;5094656;27;20023;-80
2023/03/12 07:33:35;;;;;;;9.90;4.80;;;1.70;99.90;;;;;;5127802;27;20042;-79
2023/03/12 07:36:02;;;;;;;9.75;5.18;;;0.70;99.90;;;;;;5106739;27;20035;-82
2023/03/12 07:38:28;;;;;;;11.18;4.80;;;0.80;99.90;;;;;;5110835;27;20084;-81
2023/03/12 07:40:55;;;;;;;13.73;5.68;;;0.80;99.90;;;;;;5131111;27;20039;-79
2023/03/12 07:43:22;;;;;;;9.43;5.32;;;0.70;99.90;;;;;;5128098;27;20031;-79
2023/03/12 07:45:48;;;;;;;6.65;5.03;;;0.90;99.90;;;;;;5103246;27;20240;-80
2023/03/12 07:48:32;;;;;;;9.73;5.49;;;0.70;99.90;;;;;;5032755;28;10000497;-83
2023/03/12 07:50:58;;;;;;;11.25;5.93;;;0.70;99.90;;;;;;5118835;27;20263;-83
2023/03/12 07:53:24;;;;;;;10.88;6.18;;;0.60;99.90;;;;;;5103152;27;20054;-80
2023/03/12 07:55:53;;;;;;;9.07;6.18;;;0.90;99.90;;;;;;5103617;27;20186;-82
2023/03/12 07:58:19;;;;;;;15.35;7.13;;;0.60;99.90;;;;;;5091384;27;20047;-81
2023/03/12 08:00:44;;;;;;;12.88;5.70;;;0.60;99.90;;;;;;5108683;27;20089;-80
2023/03/12 08:03:11;;;;;;;8.82;5.65;;;0.60;99.90;;;;;;5095536;27;20051;-80
2023/03/12 08:05:38;;;;;;;12.40;5.88;;;0.60;99.90;;;;;;5109382;27;20069;-78
2023/03/12 08:08:03;;;;;;;9.95;5.32;;;0.40;99.90;;;;;;5084593;28;20044;-79
2023/03/12 08:10:29;;;;;;;11.43;6.88;;;0.60;99.90;;;;;;5106793;27;20099;-79
2023/03/12 08:12:57;;;;;;;12.75;6.03;;;2.40;99.90;;;;;;5083476;27;20043;-79
2023/03/12 08:15:22;;;;;;;9.50;6.68;;;0.60;99.90;;;;;;5125699;27;20701;-81
2023/03/12 08:17:48;;;;;;;13.07;7.03;;;2.30;99.90;;;;;;5092513;27;20967;-80
2023/03/12 08:20:14;;;;;;;19.08;10.13;;;0.20;99.90;;;;;;5128755;27;20070;-79
2023/03/12 08:22:40;;;;;;;7.72;5.53;;;0.70;99.90;;;;;;5121075;27;20418;-81
2023/03/12 08:25:09;;;;;;;17.30;5.95;;;1.50;99.90;;;;;;5100217;28;20044;-80
2023/03/12 08:27:35;;;;;;;11.02;6.38;;;0.70;99.90;;;;;;5121380;27;20046;-81
2023/03/12 08:30:05;;;;;;;13.40;6.28;;;0.70;99.90;;;;;;5103626;27;20722;-81
2023/03/12 08:32:30;;;;;;;10.27;6.15;;;0.70;99.90;;;;;;5134857;27;20077;-79
2023/03/12 08:34:56;;;;;;;11.27;6.25;;;0.70;99.90;;;;;;5140488;27;20402;-86
2023/03/12 08:37:22;;;;;;;6.60;5.53;;;0.90;99.90;;;;;;5089587;27;20252;-82
2023/03/12 08:39:48;;;;;;;9.43;6.97;;;0.70;99.90;;;;;;5106955;27;20035;-79
2023/03/12 08:42:14;;;;;;;8.50;5.38;;;;;;;;;;5087915;27;20070;-80
2023/03/12 08:44:39;;;;;;;10.13;5.30;;;0.80;99.90;;;;;;5107027;27;20070;-81
2023/03/12 08:47:05;;;;;;;9.73;5.40;;;1.70;99.90;;;;;;5121978;27;20067;-83
2023/03/12 08:49:31;;;;;;;9.90;6.47;;;0.80;99.90;;;;;;5107011;27;20038;-83
2023/03/12 08:51:56;;;;;;;8.80;5.80;;;2.70;99.90;;;;;;5108182;27;20126;-80
2023/03/12 08:54:22;;;;;;;11.20;5.60;;;0.70;99.90;;;;;;5122670;27;20095;-83
2023/03/12 08:56:52;;;;;;;9.95;6.03;;;0.90;99.90;;;;;;5107952;27;20096;-81
2023/03/12 08:59:19;;;;;;;8.23;5.18;;;0.80;99.90;;;;;;5108378;27;20042;-86
2023/03/12 09:01:45;;;;;;;11.68;5.55;;;0.80;99.90;;;;;;5108712;27;20038;-81
2023/03/12 09:04:13;;;;;;;8.15;5.43;;;2.30;99.90;;;;;;5086960;27;20040;-83
2023/03/12 09:06:41;;;;;;;8.15;4.65;;;0.80;99.90;;;;;;5089968;27;20054;-82
2023/03/12 09:09:10;;;;;;;11.07;5.43;;;0.90;99.90;;;;;;5122720;27;20082;-81
2023/03/12 09:11:38;;;;;;;7.47;5.22;;;1.30;99.90;;;;;;5100472;27;20580;-80
2023/03/12 09:14:04;;;;;;;7.60;6.18;;;0.90;99.90;;;;;;5102636;27;20082;-83
2023/03/12 09:16:30;;;;;;;11.05;5.45;;;2.00;99.90;;;;;;5122115;27;20470;-80
2023/03/12 09:18:56;;;;;;;7.90;5.63;;;2.40;99.90;;;;;;5108129;27;20115;-80
2023/03/12 09:21:21;;;;;;;9.18;6.10;;;0.90;99.90;;;;;;5108127;27;20039;-80
2023/03/12 09:23:47;;;;;;;9.88;6.18;;;3.00;99.90;;;;;;5089253;27;20067;-80
2023/03/12 09:26:15;;;;;;;7.47;5.78;;;-0.20;99.90;;;;;;5108645;27;20042;-80
2023/03/12 09:28:43;;;;;;;10.25;5.38;;;1.10;99.90;;;;;;5105970;27;20051;-80
2023/03/12 09:31:09;;;;;;;8.90;5.28;;;0.60;99.90;;;;;;5101112;28;20438;-81
2023/03/12 09:33:35;;;;;;;6.55;5.47;;;1.10;99.90;;;;;;5101960;27;20502;-80
2023/03/12 09:36:01;;;;;;;7.45;6.15;;;0.90;99.90;;;;;;5107439;27;20067;-80
2023/03/12 09:38:27;;;;;;;8.85;5.30;;;1.10;99.90;;;;;;5084274;28;20548;-79
2023/03/12 09:40:55;;;;;;;12.38;5.88;;;1.10;99.90;;;;;;5102034;27;20057;-80
2023/03/12 09:43:35;;;;;;;10.00;7.18;;;1.10;99.90;;;;;;5100234;27;20058;-81
2023/03/12 09:46:02;;;;;;;7.47;4.82;;;1.10;99.90;;;;;;5104799;27;21117;-82
2023/03/12 09:48:34;;;;;;;8.48;4.95;;;1.10;99.90;;;;;;5104110;27;20043;-82
2023/03/12 09:51:23;;;;;;;7.88;5.10;;;1.10;99.90;;;;;;5106836;27;20035;-84
2023/03/12 09:53:57;;;;;;;11.20;6.30;;;1.20;99.90;;;;;;5091250;27;20054;-81
2023/03/12 09:56:25;;;;;;;6.57;5.70;;;1.10;99.90;;;;;;5089437;27;20046;-82
2023/03/12 09:58:53;;;;;;;4.95;4.40;;;0.90;99.90;;;;;;5090710;27;20047;-83
2023/03/12 10:01:36;;;;;;;9.05;5.55;;;1.40;99.90;;;;;;5108132;27;20506;-80
2023/03/12 10:04:07;;;;;;;5.68;5.15;;;1.30;99.90;;;;;;5108646;27;20115;-80
2023/03/12 10:06:56;;;;;;;7.25;4.97;;;1.30;99.90;;;;;;5110158;27;20121;-81
2023/03/12 10:09:46;;;;;;;6.53;4.53;;;1.40;99.90;;;;;;5107549;28;20572;-80
2023/03/12 10:12:37;;;;;;;7.60;5.15;;;1.40;99.90;;;;;;5116737;27;20050;-82
2023/03/12 10:15:11;;;;;;;7.85;5.53;;;1.40;99.90;;;;;;5101394;27;20047;-81
2023/03/12 10:18:07;;;;;;;8.70;4.90;;;1.30;99.90;;;;;;5121022;28;20064;-81
2023/03/12 10:20:57;;;;;;;7.60;5.03;;;1.40;99.90;;;;;;5121452;28;20039;-81
2023/03/12 10:23:53;;;;;;;9.05;5.55;;;1.40;99.90;;;;;;5122223;28;20494;-81
2023/03/12 10:26:27;;;;;;;6.55;5.22;;;1.40;99.90;;;;;;5084412;28;20079;-82
2023/03/12 10:29:07;;;;;;;9.40;5.82;;;1.40;99.90;;;;;;5108119;28;20043;-82
2023/03/12 10:31:42;;;;;;;7.80;5.07;;;3.60;99.90;;;;;;5090955;28;20494;-82
2023/03/12 10:34:22;;;;;;;6.80;5.20;;;3.00;99.90;;;;;;5082995;28;20074;-81
2023/03/12 10:36:48;;;;;;;8.50;5.45;;;1.60;99.90;;;;;;5091620;28;20039;-81
2023/03/12 10:39:16;;;;;;;12.02;5.75;;;1.40;99.90;;;;;;5108105;28;20074;-82
2023/03/12 10:41:44;;;;;;;9.70;5.38;;;1.50;99.90;;;;;;5109235;28;20897;-82
2023/03/12 10:44:17;;;;;;;6.05;5.45;;;3.60;99.90;;;;;;5108251;28;20168;-81
2023/03/12 10:46:50;;;;;;;6.18;5.13;;;1.50;99.90;;;;;;5127518;28;20073;-83
2023/03/12 10:49:22;;;;;;;7.32;5.15;;;1.50;99.90;;;;;;5106691;28;20070;-83
2023/03/12 10:52:16;;;;;;;10.07;6.63;;;1.40;99.90;;;;;;5103373;28;20088;-83
2023/03/12 10:54:44;;;;;;;9.63;6.18;;;1.70;99.90;;;;;;5087812;28;20104;-82
2023/03/12 10:57:22;;;;;;;8.90;6.03;;;1.60;99.90;;;;;;5083488;28;20040;-85
2023/03/12 10:59:50;;;;;;;6.30;5.63;;;1.60;99.90;;;;;;5105645;28;20126;-81
2023/03/12 11:02:36;;;;;;;11.68;6.90;;;1.70;99.90;;;;;;5122528;28;20092;-83
2023/03/12 11:05:19;;;;;;;9.75;7.38;;;1.70;99.90;;;;;;5104266;28;20061;-81
2023/03/12 11:07:50;;;;;;;8.32;6.25;;;1.80;99.90;;;;;;5124792;28;20228;-82
2023/03/12 11:10:23;;;;;;;10.95;6.82;;;3.90;99.90;;;;;;5106050;28;20048;-81
2023/03/12 11:12:56;;;;;;;11.88;7.78;;;1.30;99.90;;;;;;5108659;28;20043;-81
2023/03/12 11:15:23;;;;;;;10.30;7.03;;;2.00;99.90;;;;;;5089750;28;20054;-81
2023/03/12 11:17:49;;;;;;;11.10;7.93;;;3.20;99.90;;;;;;5126844;28;20051;-84
2023/03/12 11:20:25;;;;;;;10.18;7.43;;;2.00;99.90;;;;;;5123173;28;20164;-82
2023/03/12 11:22:51;;;;;;;11.05;8.25;;;0.60;99.90;;;;;;5108578;27;20482;-82
2023/03/12 11:25:26;;;;;;;13.65;8.13;;;4.10;99.90;;;;;;5090216;27;20035;-79
2023/03/12 11:27:58;;;;;;;14.93;8.75;;;2.30;99.90;;;;;;5093892;27;20095;-81
2023/03/12 11:30:38;;;;;;;12.88;9.40;;;3.70;99.90;;;;;;5078334;27;20056;-80
2023/03/12 11:33:03;;;;;;;11.48;9.20;;;1.30;99.90;;;;;;5128858;27;20043;-81
2023/03/12 11:36:12;;;;;;;14.27;10.27;;;3.40;99.90;;;;;;5112058;27;20163;-80
2023/03/12 11:38:40;;;;;;;18.60;10.65;;;2.50;99.90;;;;;;5099396;27;20146;-81
2023/03/12 11:41:37;;;;;;;14.00;9.32;;;2.50;99.90;;;;;;5107661;27;20569;-81
2023/03/12 11:44:05;;;;;;;11.65;8.85;;;2.60;99.90;;;;;;5126359;27;20443;-82
2023/03/12 11:46:56;;;;;;;14.23;10.88;;;2.60;99.90;;;;;;5111008;27;20036;-80
2023/03/12 11:50:00;;;;;;;15.02;11.32;;;2.70;99.90;;;;;;5128566;27;20077;-82
2023/03/12 11:52:55;;;;;;;22.17;11.13;;;2.80;99.90;;;;;;5062159;28;20155;-81
2023/03/12 11:55:20;;;;;;;12.85;10.35;;;3.20;99.90;;;;;;5107132;27;20051;-81
2023/03/12 11:57:56;;;;;;;16.25;11.55;;;3.00;99.90;;;;;;5089873;27;20935;-81
2023/03/12 12:00:43;;;;;;;18.55;11.63;;;3.30;99.90;;;;;;5108060;27;20506;-80
2023/03/12 12:03:33;;;;;;;25.80;15.95;;;3.20;99.90;;;;;;5095189;27;20039;-81
2023/03/12 12:06:04;;;;;;;18.65;12.85;;;3.30;99.90;;;;;;5128414;27;20051;-81
2023/03/12 12:08:48;;;;;;;19.08;12.65;;;5.10;99.90;;;;;;5110323;27;20365;-82
2023/03/12 12:11:36;;;;;;;19.92;13.15;;;3.40;99.90;;;;;;5110145;27;20044;-81
2023/03/12 12:14:23;;;;;;;15.93;10.60;;;3.60;99.90;;;;;;5129614;27;20055;-82
2023/03/12 12:17:17;;;;;;;17.50;11.95;;;3.60;99.90;;;;;;5085913;27;20799;-82
2023/03/12 12:19:59;;;;;;;19.05;13.50;;;3.70;99.90;;;;;;5066672;27;20507;-79
2023/03/12 12:22:53;;;;;;;17.75;13.25;;;3.80;99.90;;;;;;5110793;27;20039;-80
2023/03/12 12:25:22;;;;;;;17.90;11.95;;;4.00;99.90;;;;;;5110654;27;20043;-79
2023/03/12 12:28:10;;;;;;;21.75;13.30;;;4.10;99.90;;;;;;5109870;27;20043;-80
2023/03/12 12:30:54;;;;;;;17.80;13.40;;;4.20;99.90;;;;;;5124320;27;20043;-79
2023/03/12 12:33:44;;;;;;;18.05;13.10;;;4.30;99.90;;;;;;5124424;27;20035;-80
2023/03/12 12:36:12;;;;;;;19.92;14.45;;;5.70;99.90;;;;;;5111479;27;20083;-79
2023/03/12 12:39:06;;;;;;;21.65;14.23;;;4.50;99.90;;;;;;5104770;27;20064;-80
2023/03/12 12:41:39;;;;;;;26.83;15.63;;;4.50;99.90;;;;;;5126051;27;20031;-78
2023/03/12 12:44:12;;;;;;;21.17;14.38;;;4.80;99.90;;;;;;5093670;27;20060;-80
2023/03/12 12:46:44;;;;;;;27.65;15.52;;;4.80;99.90;;;;;;5088097;27;20036;-80
2023/03/12 12:49:15;;;;;;;29.60;15.77;;;4.90;99.90;;;;;;5093958;27;20035;-80
2023/03/12 12:51:46;;;;;;;26.52;16.15;;;5.00;99.90;;;;;;5104114;28;20051;-80
2023/03/12 12:54:32;;;;;;;27.45;15.07;;;6.50;99.90;;;;;;5104804;27;20085;-80
2023/03/12 12:57:30;;;;;;;35.67;17.50;;;5.20;99.90;;;;;;5108103;27;20043;-80
2023/03/12 13:00:14;;;;;;;35.72;16.55;;;5.30;99.90;;;;;;5123706;27;20039;-79
2023/03/12 13:02:43;;;;;;;33.35;15.23;;;5.40;99.90;;;;;;5123621;27;20084;-80
2023/03/12 13:05:36;;;;;;;22.70;12.10;;;5.50;99.90;;;;;;5120417;27;20046;-81